Historyczne dane pomiarowe

Dodano dane terminowe – wersja testowa.

Dane z okresu 1951-2019

Wersja bazy: 1.34 [2019-03-16, lista zmian], aktualizacja planowana na 2019-04-15

Dane meteo z obszaru Polski uzyskane na podstawie danych udostępnionych przez Instytut Meteorologii i Gospodarki Wodnej – Państwowy Instytut Badawczy.

 

Wybierz Datę:    

       

TemperaturaWilgotnośćZachmurzenieWiatrCiśnienieWidzialnośćZjawiska
 Data    tng td wb rh cc ccl cl cm ch dir g1 g2 mslp ppp      
1999-07-18 00:00:00 18.5--- 10.5 13.960wxwx1wx--1019.7 997.0 0.0---wx
1999-07-18 01:00:00 18.1--- 10.4 13.761wxwx1wx--1019.6 996.9----wx
1999-07-18 02:00:00 16.3--- 10.7 13.169wxwxwx1wx--1019.5 996.6----wx
1999-07-18 03:00:00 15.8--- 11.5 13.376wxwxwx2wx--1019.6 996.7----wx
1999-07-18 04:00:00 15.8--- 11.5 13.376wxwxwx2wx--1019.6 996.7----wx
1999-07-18 05:00:00 17.3--- 11.7 14.069wxwxwx1wx--1019.7 996.9----wx
1999-07-18 06:00:00 18.8--- 12.4 15.067wxwxwx2wx--1019.9 997.2 0.0---wx
1999-07-18 07:00:00 21.0--- 12.4 15.858wxwxwxwx2wx--1019.9 997.4----wx
1999-07-18 08:00:00 22.8--- 14.1 17.458wxwxwx2wx--1019.5 997.1----wx
1999-07-18 09:00:00 24.2--- 13.2 17.450wxwxwx2wx--1019.1 996.8----wx
1999-07-18 10:00:00 25.7--- 12.3 17.543wxwxwxwx2wx--1018.7 996.6----wx
1999-07-18 11:00:00 26.2--- 11.7 17.441wxwxwxwx2wx--1018.4 996.3----wx
1999-07-18 12:00:00 26.8--- 12.1 17.840wxwxwxwx3wx--1017.9 995.9 0.0---wx
1999-07-18 13:00:00 27.5--- 13.1 18.541wxwxwxwx2wx--1017.5 995.5----wx
1999-07-18 14:00:00 28.0--- 11.7 18.036wxwxwxwx3wx--1017.1 995.2----wx
1999-07-18 15:00:00 28.1--- 11.6 18.036wxwxwxwx2wx--1016.9 995.0----wx
1999-07-18 16:00:00 27.8--- 11.8 18.037wxwxwxwx3wx--1016.6 994.7----wx
1999-07-18 17:00:00 27.3--- 12.2 18.039wxwxwxwx2wx--1016.6 994.6----wx
1999-07-18 18:00:00 26.2--- 13.6 18.346wxwxwxwx1wx--1016.6 994.5 0.0---wx
1999-07-18 19:00:00 24.6--- 12.9 17.448wxwxwxwx1wx--1016.9 994.7----wx
1999-07-18 20:00:00 22.9--- 13.7 17.256wxwxwxwx2wx--1017.1 994.8----wx
1999-07-18 21:00:00 22.3--- 13.7 17.058wxwxwx2wx--1017.3 994.9----wx
1999-07-18 22:00:00 21.8--- 13.1 16.558wxwx1wx--1017.3 994.9----wx
1999-07-18 23:00:00 21.1--- 12.5 15.958wxwx2wx--1017.4 994.9----wx

 

Źródłem pochodzenia danych jest Instytut Meteorologii i Gospodarki Wodnej – Państwowy Instytut Badawczy. Dane Instytutu Meteorologii i Gospodarki Wodnej – Państwowego Instytutu Badawczego zostały przetworzone.

Dane źródłowe można odnaleźć na stronie https://dane.imgw.pl